Time;durP1;ratioP1;P1;durP2;ratioP2;P2;SDS_P1;SDS_P2;PMS_P1;PMS_P2;Temp;Humidity;BMP_temperature;BMP_pressure;BME280_temperature;BME280_humidity;BME280_pressure;Samples;Min_cycle;Max_cycle;Signal;HPM_P1;HPM_P2
2022/02/26 00:00:48;;;;;;;26.08;7.55;;;1.50;99.90;;;2.17;100.00;101995.16;5076617;28;20033;-79
2022/02/26 00:03:13;;;;;;;20.33;8.30;;;1.50;99.90;;;2.09;100.00;102000.06;5075794;28;20033;-79
2022/02/26 00:05:47;;;;;;;23.67;7.22;;;1.40;99.90;;;2.04;100.00;102002.00;5076302;28;20032;-79
2022/02/26 00:08:13;;;;;;;26.60;8.40;;;1.40;99.90;;;1.97;100.00;102006.91;5059838;28;20376;-79
2022/02/26 00:10:39;;;;;;;29.85;9.07;;;1.30;99.90;;;1.91;100.00;102006.06;5058030;28;20131;-78
2022/02/26 00:13:04;;;;;;;27.52;8.68;;;1.30;99.90;;;1.83;100.00;102008.50;5076775;28;20064;-80
2022/02/26 00:15:30;;;;;;;30.73;9.60;;;1.20;99.90;;;1.82;100.00;102007.66;5076591;28;20024;-77
2022/02/26 00:17:56;;;;;;;34.88;9.80;;;1.20;99.90;;;1.79;100.00;102004.63;5077237;28;20421;-79
2022/02/26 00:20:22;;;;;;;33.08;10.02;;;1.20;99.90;;;1.77;100.00;102004.03;5076277;28;20475;-80
2022/02/26 00:22:51;;;;;;;36.03;9.50;;;1.10;99.90;;;1.77;100.00;102013.13;5075397;28;20373;-79
2022/02/26 00:25:17;;;;;;;24.60;9.40;;;1.10;99.90;;;1.72;100.00;102015.88;5077061;28;20029;-80
2022/02/26 00:27:43;;;;;;;26.55;8.95;;;1.10;99.90;;;1.68;100.00;102027.66;5076830;28;20090;-78
2022/02/26 00:30:10;;;;;;;23.42;8.73;;;1.00;99.90;;;1.53;100.00;102042.19;5058115;28;20123;-80
2022/02/26 00:32:36;;;;;;;23.90;8.23;;;0.90;99.90;;;1.41;100.00;102041.53;5080043;28;20032;-79
2022/02/26 00:35:02;;;;;;;26.75;9.07;;;0.80;99.90;;;1.37;100.00;102044.00;5081906;28;20028;-79
2022/02/26 00:37:28;;;;;;;27.88;9.75;;;0.70;99.90;;;1.40;100.00;102043.47;5084172;28;20046;-78
2022/02/26 00:40:05;;;;;;;32.08;10.10;;;0.80;99.90;;;1.36;100.00;102039.56;5080889;28;20032;-79
2022/02/26 00:42:31;;;;;;;29.67;11.32;;;0.70;99.90;;;1.33;100.00;102039.25;5062391;28;20082;-78
2022/02/26 00:45:06;;;;;;;24.15;10.35;;;0.70;99.90;;;1.28;100.00;102047.50;5082800;28;20459;-79
2022/02/26 00:47:34;;;;;;;19.63;7.95;;;0.70;99.90;;;1.23;100.00;102048.25;5080770;28;20029;-78
2022/02/26 00:49:59;;;;;;;35.70;11.25;;;0.60;99.90;;;1.26;100.00;102053.25;5070715;28;20057;-79
2022/02/26 00:52:31;;;;;;;29.95;10.85;;;0.70;99.90;;;1.32;100.00;102056.84;5061257;28;20499;-81
2022/02/26 00:55:00;;;;;;;44.88;11.50;;;0.70;99.90;;;1.41;100.00;102056.13;5062884;28;20108;-79
2022/02/26 00:57:27;;;;;;;35.40;11.45;;;0.70;99.90;;;1.44;100.00;102060.28;5060028;28;20028;-79
2022/02/26 00:59:55;;;;;;;27.48;11.23;;;0.80;99.90;;;1.41;100.00;102064.38;5058670;28;20583;-78
2022/02/26 01:02:21;;;;;;;30.63;10.63;;;0.80;99.90;;;1.38;100.00;102066.84;5058317;28;20029;-80
2022/02/26 01:04:52;;;;;;;28.73;11.82;;;0.70;99.90;;;1.28;100.00;102077.78;5058833;28;20040;-79
2022/02/26 01:07:19;;;;;;;30.30;10.88;;;0.70;99.90;;;1.20;100.00;102073.56;5060324;28;20385;-79
2022/02/26 01:09:46;;;;;;;29.38;11.18;;;0.60;99.90;;;1.17;100.00;102085.09;5059964;28;20037;-79
2022/02/26 01:12:13;;;;;;;37.60;12.10;;;0.60;99.90;;;1.14;100.00;102082.03;5059947;28;20053;-78
2022/02/26 01:14:41;;;;;;;36.63;11.65;;;0.50;99.90;;;1.15;100.00;102083.69;5059659;28;20408;-78
2022/02/26 01:17:11;;;;;;;34.38;11.23;;;0.60;99.90;;;1.19;100.00;102087.59;5059674;28;20496;-80
2022/02/26 01:19:38;;;;;;;31.88;10.70;;;0.60;99.90;;;1.20;100.00;102089.25;5059987;28;20036;-79
2022/02/26 01:22:06;;;;;;;31.75;11.27;;;0.50;99.90;;;1.19;100.00;102093.09;5060061;28;20587;-77
2022/02/26 01:24:33;;;;;;;31.08;11.73;;;0.60;99.90;;;1.18;100.00;102094.19;5043076;28;20056;-80
2022/02/26 01:27:00;;;;;;;27.10;12.23;;;0.60;99.90;;;1.18;100.00;102103.28;5060478;28;20031;-79
2022/02/26 01:29:26;;;;;;;26.30;11.88;;;0.60;99.90;;;1.20;100.00;102103.00;5042802;28;20107;-80
2022/02/26 01:31:53;;;;;;;38.60;14.95;;;0.60;99.90;;;1.23;100.00;102097.81;5060392;28;20017;-78
2022/02/26 01:34:19;;;;;;;34.35;14.65;;;0.60;99.90;;;1.26;100.00;102093.69;5041497;28;20056;-79
2022/02/26 01:36:44;;;;;;;31.35;12.65;;;0.60;99.90;;;1.33;100.00;102097.91;5059562;28;20064;-79
2022/02/26 01:39:11;;;;;;;37.55;13.43;;;0.70;99.90;;;1.35;100.00;102101.22;5059737;28;20555;-79
2022/02/26 01:41:39;;;;;;;36.53;13.57;;;0.70;99.90;;;1.38;100.00;102110.91;5041476;28;20060;-78
2022/02/26 01:44:06;;;;;;;41.47;14.07;;;0.70;99.90;;;1.39;100.00;102107.03;5059466;28;20400;-80
2022/02/26 01:46:35;;;;;;;41.70;16.02;;;0.80;99.90;;;1.43;100.00;102105.41;5060005;28;20033;-78
2022/02/26 01:49:00;;;;;;;43.50;14.23;;;0.80;99.90;;;1.52;100.00;102107.44;5060053;28;20025;-80
2022/02/26 01:51:26;;;;;;;35.15;13.27;;;0.90;99.90;;;1.58;100.00;102108.28;5078877;28;20025;-79
2022/02/26 01:53:52;;;;;;;55.47;17.10;;;0.90;99.90;;;1.56;100.00;102102.22;5079039;28;20016;-77
2022/02/26 01:56:18;;;;;;;45.33;14.45;;;0.90;99.90;;;1.55;100.00;102104.16;5061580;28;20036;-79
2022/02/26 01:58:44;;;;;;;31.15;13.90;;;0.90;99.90;;;1.50;100.00;102109.63;5077621;28;20215;-78
2022/02/26 02:01:16;;;;;;;34.25;14.57;;;0.90;99.90;;;1.39;100.00;102110.63;5078660;28;20024;-80
2022/02/26 02:03:42;;;;;;;29.73;12.68;;;0.80;99.90;;;1.35;100.00;102109.47;5076616;28;20029;-77
2022/02/26 02:06:10;;;;;;;40.70;12.25;;;0.70;99.90;;;1.32;100.00;102112.75;5060316;28;20031;-81
2022/02/26 02:08:36;;;;;;;39.08;15.30;;;0.70;99.90;;;1.28;100.00;102108.88;5077244;28;20032;-78
2022/02/26 02:11:02;;;;;;;30.20;12.38;;;0.60;99.90;;;1.26;100.00;102102.78;5078141;28;20059;-79
2022/02/26 02:13:28;;;;;;;36.05;13.80;;;0.60;99.90;;;1.24;100.00;102107.72;5077185;28;20027;-78
2022/02/26 02:15:57;;;;;;;39.55;13.35;;;0.60;99.90;;;1.23;100.00;102100.56;5078597;28;20107;-78
2022/02/26 02:18:23;;;;;;;37.97;12.38;;;0.60;99.90;;;1.23;100.00;102102.47;5079128;28;20032;-77
2022/02/26 02:20:49;;;;;;;38.97;14.35;;;0.60;99.90;;;1.20;100.00;102103.00;5077899;28;20039;-77
2022/02/26 02:23:16;;;;;;;39.58;13.85;;;0.60;99.90;;;1.20;100.00;102103.84;5078330;28;20082;-78
2022/02/26 02:25:45;;;;;;;48.75;14.60;;;0.60;99.90;;;1.31;100.00;102100.09;5078155;28;20032;-77
2022/02/26 02:28:12;;;;;;;36.95;13.40;;;0.70;99.90;;;1.34;100.00;102102.31;5077727;28;20092;-77
2022/02/26 02:30:39;;;;;;;42.13;14.00;;;0.70;99.90;;;1.34;100.00;102105.09;5078683;28;20032;-79
2022/02/26 02:33:06;;;;;;;37.45;13.43;;;0.70;99.90;;;1.30;100.00;102112.19;5078041;28;20448;-77
2022/02/26 02:35:43;;;;;;;33.10;13.00;;;0.70;99.90;;;1.25;100.00;102103.91;5060285;28;20043;-78
2022/02/26 02:38:29;;;;;;;35.95;13.23;;;0.70;99.90;;;1.25;100.00;102103.06;5076554;28;20096;-78
2022/02/26 02:40:55;;;;;;;50.25;14.65;;;0.60;99.90;;;1.26;100.00;102107.47;5059872;28;20145;-80
2022/02/26 02:43:23;;;;;;;43.00;16.00;;;0.60;99.90;;;1.27;100.00;102114.63;5078489;28;20043;-80
2022/02/26 02:45:49;;;;;;;35.50;14.38;;;0.70;99.90;;;1.27;100.00;102109.13;5060555;28;20028;-78
2022/02/26 02:48:15;;;;;;;47.95;13.30;;;0.70;99.90;;;1.26;100.00;102122.06;5075608;28;20034;-79
2022/02/26 02:50:42;;;;;;;42.83;12.52;;;0.70;99.90;;;1.24;100.00;102121.50;5062475;28;20032;-79
2022/02/26 02:53:08;;;;;;;37.58;13.20;;;0.60;99.90;;;1.25;100.00;102120.41;5057292;28;20025;-80
2022/02/26 02:55:34;;;;;;;43.10;13.90;;;0.70;99.90;;;1.32;100.00;102121.00;5056766;28;20028;-79
2022/02/26 02:58:01;;;;;;;39.63;14.82;;;0.70;99.90;;;1.41;100.00;102124.13;5057204;28;20025;-79
2022/02/26 03:00:30;;;;;;;38.85;13.95;;;0.80;99.90;;;1.49;100.00;102129.16;5056838;28;20059;-78
2022/02/26 03:02:56;;;;;;;40.00;14.85;;;0.80;99.90;;;1.59;100.00;102135.59;5055371;28;20025;-78
2022/02/26 03:05:24;;;;;;;47.35;16.48;;;0.90;99.90;;;1.70;100.00;102141.19;5051982;28;20039;-79
2022/02/26 03:07:51;;;;;;;41.58;14.82;;;1.00;99.90;;;1.74;100.00;102132.13;5070078;28;20029;-79
2022/02/26 03:10:20;;;;;;;37.80;14.00;;;1.10;99.90;;;1.76;100.00;102137.38;5064228;28;20021;-80
2022/02/26 03:12:53;;;;;;;56.70;16.35;;;1.10;99.90;;;1.80;100.00;102135.75;5058881;28;20041;-79
2022/02/26 03:15:22;;;;;;;46.60;14.75;;;1.10;99.90;;;1.87;100.00;102133.59;5057671;28;20083;-79
2022/02/26 03:17:52;;;;;;;37.88;15.85;;;1.20;99.90;;;1.84;100.00;102128.59;5057633;28;20025;-75
2022/02/26 03:20:21;;;;;;;32.67;14.70;;;1.20;99.90;;;1.84;100.00;102142.38;5057576;28;20536;-79
2022/02/26 03:22:48;;;;;;;46.97;15.77;;;1.20;99.90;;;1.83;100.00;102143.50;5056944;28;20021;-79
2022/02/26 03:25:16;;;;;;;39.80;14.27;;;1.20;99.90;;;1.88;100.00;102152.63;5040946;28;20040;-78
2022/02/26 03:27:45;;;;;;;40.72;14.63;;;1.20;99.90;;;1.86;100.00;102143.78;5057764;28;20037;-79
2022/02/26 03:30:12;;;;;;;40.97;13.93;;;1.20;99.90;;;1.81;100.00;102152.00;5057112;28;20500;-80
2022/02/26 03:32:40;;;;;;;42.97;13.65;;;1.20;99.90;;;1.79;100.00;102151.47;5059136;28;20492;-77
2022/02/26 03:35:08;;;;;;;46.45;15.23;;;1.20;99.90;;;1.86;100.00;102148.47;5056509;28;20025;-80
2022/02/26 03:37:34;;;;;;;57.05;17.33;;;1.20;99.90;;;1.92;100.00;102150.19;5057124;28;20063;-78
2022/02/26 03:40:00;;;;;;;43.65;15.38;;;1.30;99.90;;;2.08;100.00;102144.50;5058103;28;20058;-78
2022/02/26 03:42:26;;;;;;;48.20;16.20;;;1.40;99.90;;;2.09;100.00;102143.41;5060100;28;20055;-79
2022/02/26 03:44:58;;;;;;;47.55;15.57;;;1.40;99.90;;;2.14;100.00;102153.63;5057159;28;20515;-78
2022/02/26 03:47:24;;;;;;;52.20;16.08;;;1.40;99.90;;;2.21;100.00;102165.28;5039274;28;20036;-80
2022/02/26 03:49:51;;;;;;;42.45;15.85;;;1.50;99.90;;;2.25;100.00;102157.31;5067885;28;20086;-78
2022/02/26 03:52:25;;;;;;;40.03;15.48;;;1.50;99.90;;;2.31;100.00;102157.03;5077122;28;20025;-78
2022/02/26 03:54:51;;;;;;;38.08;14.57;;;1.50;99.90;;;2.27;100.00;102158.69;5077011;28;20024;-81
2022/02/26 03:57:18;;;;;;;43.17;15.27;;;1.50;99.90;;;2.29;100.00;102163.91;5077013;28;20480;-77
2022/02/26 03:59:44;;;;;;;33.83;13.38;;;1.50;99.90;;;2.25;100.00;102171.09;5077380;28;20032;-79
2022/02/26 04:02:13;;;;;;;35.05;13.18;;;1.50;99.90;;;2.11;100.00;102165.19;5076553;28;20032;-77
2022/02/26 04:04:39;;;;;;;41.90;14.05;;;1.40;99.90;;;2.08;100.00;102162.97;5076257;28;20048;-78
2022/02/26 04:07:06;;;;;;;40.15;14.30;;;1.30;99.90;;;2.05;100.00;102175.38;5058007;28;20096;-78
2022/02/26 04:09:33;;;;;;;36.65;12.65;;;1.30;99.90;;;1.94;100.00;102184.63;5059148;28;20340;-79
2022/02/26 04:12:00;;;;;;;27.58;11.52;;;1.20;99.90;;;1.72;100.00;102177.56;5075827;28;20442;-80
2022/02/26 04:14:26;;;;;;;35.03;13.63;;;1.00;99.90;;;1.63;100.00;102171.69;5075528;28;20047;-77
2022/02/26 04:16:52;;;;;;;34.40;12.98;;;0.90;99.90;;;1.67;100.00;102172.00;5076574;28;20082;-77
2022/02/26 04:19:18;;;;;;;35.33;13.20;;;0.90;99.90;;;1.56;100.00;102171.09;5076434;28;20479;-79
2022/02/26 04:21:44;;;;;;;31.02;11.48;;;0.80;99.90;;;1.39;100.00;102173.94;5076570;28;20032;-78
2022/02/26 04:24:10;;;;;;;32.53;13.20;;;0.70;99.90;;;1.20;100.00;102185.56;5076145;28;20021;-78
2022/02/26 04:26:36;;;;;;;26.80;11.05;;;0.50;99.90;;;1.10;100.00;102194.53;5076543;28;20487;-76
2022/02/26 04:29:02;;;;;;;32.45;11.63;;;0.50;99.90;;;1.03;100.00;102196.66;5059261;28;20033;-78
2022/02/26 04:31:29;;;;;;;31.08;12.13;;;0.40;99.90;;;0.97;100.00;102190.28;5076055;28;20051;-78
2022/02/26 04:33:55;;;;;;;44.13;14.90;;;0.40;99.90;;;0.94;100.00;102189.94;5058963;28;20025;-80
2022/02/26 04:36:21;;;;;;;30.55;12.75;;;0.30;99.90;;;0.85;100.00;102194.25;5077033;28;20036;-77
2022/02/26 04:38:47;;;;;;;32.45;12.32;;;0.20;99.90;;;0.74;100.00;102197.97;5077169;28;20108;-77
2022/02/26 04:41:17;;;;;;;41.50;16.00;;;0.10;99.90;;;0.66;100.00;102188.22;5058929;28;20495;-80
2022/02/26 04:43:44;;;;;;;42.60;15.55;;;0.10;99.90;;;0.65;100.00;102192.06;5058825;28;20146;-78
2022/02/26 04:46:10;;;;;;;46.97;16.55;;;0.00;99.90;;;0.64;100.00;102184.06;5077088;28;20040;-80
2022/02/26 04:48:37;;;;;;;42.85;15.93;;;0.00;99.90;;;0.67;100.00;102192.66;5075636;28;20031;-80
2022/02/26 04:51:08;;;;;;;37.03;16.15;;;0.10;99.90;;;0.73;100.00;102193.53;5041260;28;20068;-79
2022/02/26 04:53:39;;;;;;;44.47;17.52;;;0.10;99.90;;;0.83;100.00;102199.19;5056240;28;20036;-77
2022/02/26 04:56:08;;;;;;;51.33;17.95;;;0.20;99.90;;;0.91;100.00;102180.28;5038052;28;20033;-79
2022/02/26 04:58:38;;;;;;;57.53;20.70;;;0.30;99.90;;;1.02;100.00;102186.75;5036439;28;20055;-78
2022/02/26 05:01:13;;;;;;;42.22;17.50;;;0.40;99.90;;;1.05;100.00;102189.84;5054488;28;20025;-77
2022/02/26 05:03:43;;;;;;;32.70;16.03;;;0.40;99.90;;;1.01;100.00;102196.94;5055539;28;20040;-79
2022/02/26 05:06:09;;;;;;;41.95;15.90;;;0.30;99.90;;;0.85;100.00;102194.25;5058535;28;20091;-76
2022/02/26 05:08:35;;;;;;;45.25;16.63;;;0.20;99.90;;;0.65;100.00;102186.56;5058262;28;20464;-77
2022/02/26 05:11:01;;;;;;;48.25;15.57;;;0.10;99.90;;;0.63;100.00;102183.25;5057448;28;20040;-80
2022/02/26 05:13:27;;;;;;;57.50;17.92;;;0.10;99.90;;;0.67;100.00;102191.81;5056350;28;20068;-80
2022/02/26 05:15:53;;;;;;;39.60;15.40;;;0.10;99.90;;;0.67;100.00;102194.56;5040117;28;20032;-78
2022/02/26 05:18:21;;;;;;;34.78;13.82;;;0.10;99.90;;;0.59;100.00;102195.00;5060007;28;20045;-78
2022/02/26 05:20:47;;;;;;;39.08;14.27;;;0.00;99.90;;;0.45;100.00;102192.59;5060435;28;20472;-78
2022/02/26 05:23:19;;;;;;;35.85;14.23;;;-0.20;99.90;;;0.32;100.00;102192.97;5060270;28;20044;-79
2022/02/26 05:25:44;;;;;;;42.72;13.68;;;-0.20;99.90;;;0.28;100.00;102196.50;5061407;28;20044;-78
2022/02/26 05:28:10;;;;;;;34.88;15.38;;;-0.30;99.90;;;0.24;100.00;102203.56;5041952;28;20480;-80
2022/02/26 05:30:36;;;;;;;54.17;16.58;;;-0.40;99.90;;;0.13;100.00;102201.75;5062766;28;20055;-79
2022/02/26 05:33:02;;;;;;;52.33;16.38;;;-0.40;99.90;;;0.14;100.00;102193.25;5042375;28;20068;-79
2022/02/26 05:35:34;;;;;;;48.10;19.23;;;-0.40;99.90;;;0.24;100.00;102203.56;5061330;28;20059;-78
2022/02/26 05:38:00;;;;;;;49.83;18.98;;;-0.40;99.90;;;0.35;100.00;102206.19;5060042;28;20092;-78
2022/02/26 05:40:26;;;;;;;35.58;16.27;;;-0.30;99.90;;;0.42;100.00;102214.28;5060179;28;20538;-78
2022/02/26 05:42:55;;;;;;;51.85;19.45;;;-0.20;99.90;;;0.32;100.00;102220.44;5059275;28;20033;-79
2022/02/26 05:45:22;;;;;;;52.88;19.50;;;-0.20;99.90;;;0.26;100.00;102220.63;5061167;28;20073;-79
2022/02/26 05:47:48;;;;;;;49.45;16.83;;;-0.30;99.90;;;0.32;100.00;102216.91;5060756;28;20041;-78
2022/02/26 05:50:14;;;;;;;53.72;18.27;;;-0.20;99.90;;;0.40;100.00;102228.28;5086194;28;20025;-78
2022/02/26 05:52:42;;;;;;;39.88;16.50;;;-0.20;99.90;;;0.40;100.00;102239.28;5097409;28;20526;-78
2022/02/26 05:55:09;;;;;;;35.67;16.48;;;-0.20;99.90;;;0.24;100.00;102248.38;5097221;28;20036;-80
2022/02/26 05:57:35;;;;;;;35.92;16.52;;;-0.30;99.90;;;0.12;100.00;102257.78;5078703;28;20029;-79
2022/02/26 06:00:06;;;;;;;34.95;17.42;;;-0.40;99.90;;;0.02;100.00;102250.22;5097240;28;20050;-78
2022/02/26 06:02:44;;;;;;;40.53;14.98;;;-0.50;99.90;;;0.03;100.00;102260.13;5097664;28;20062;-77
2022/02/26 06:05:10;;;;;;;36.20;15.50;;;-0.60;99.90;;;-0.02;100.00;102258.13;5079895;28;20028;-78
2022/02/26 06:07:36;;;;;;;47.22;16.70;;;-0.60;99.90;;;-0.23;100.00;102269.00;5097717;28;20068;-78
2022/02/26 06:10:04;;;;;;;38.58;16.58;;;-0.70;99.90;;;-0.26;100.00;102281.31;5097904;28;20044;-78
2022/02/26 06:12:30;;;;;;;57.30;19.33;;;-0.80;99.90;;;-0.22;100.00;102276.97;5079634;28;20052;-79
2022/02/26 06:14:57;;;;;;;46.38;17.27;;;-0.80;99.90;;;-0.18;100.00;102282.81;5097694;28;20039;-80
2022/02/26 06:17:23;;;;;;;52.13;20.65;;;-0.80;99.90;;;-0.17;100.00;102293.56;5079895;28;20033;-79
2022/02/26 06:19:49;;;;;;;46.67;18.30;;;-0.70;99.90;;;-0.15;100.00;102299.63;5079754;28;20028;-79
2022/02/26 06:22:16;;;;;;;39.03;16.48;;;-0.70;99.90;;;-0.22;100.00;102295.34;5097054;28;20023;-79
2022/02/26 06:24:42;;;;;;;38.28;18.00;;;-0.70;99.90;;;-0.27;100.00;102311.75;5097040;28;20025;-80
2022/02/26 06:27:12;;;;;;;44.22;16.75;;;-0.80;99.90;;;-0.19;100.00;102316.84;5096894;28;20048;-78
2022/02/26 06:29:41;;;;;;;51.78;20.25;;;-0.70;99.90;;;-0.31;100.00;102319.66;5085952;28;20560;-79
2022/02/26 06:32:07;;;;;;;53.30;21.10;;;-0.90;99.90;;;-0.35;100.00;102317.66;5079381;28;20024;-79
2022/02/26 06:34:34;;;;;;;51.05;19.00;;;-0.90;99.90;;;-0.30;100.00;102317.75;5078149;28;20029;-81
2022/02/26 06:36:59;;;;;;;55.35;22.45;;;-0.80;99.90;;;-0.12;100.00;102332.09;5077474;28;20024;-81
2022/02/26 06:39:26;;;;;;;64.00;25.20;;;-0.70;99.90;;;0.09;100.00;102330.56;5060795;28;20329;-80
2022/02/26 06:41:52;;;;;;;59.50;24.95;;;-0.50;99.90;;;0.34;100.00;102338.41;5060368;28;20032;-77
2022/02/26 06:44:18;;;;;;;73.95;29.10;;;-0.30;99.90;;;0.52;100.00;102338.13;5077982;28;20429;-77
2022/02/26 06:46:45;;;;;;;60.80;24.67;;;-0.20;99.90;;;0.57;100.00;102348.41;5079135;28;20146;-78
2022/02/26 06:49:11;;;;;;;89.72;32.50;;;-0.10;99.90;;;0.60;100.00;102353.41;5078821;28;20028;-79
2022/02/26 06:51:41;;;;;;;80.78;34.10;;;0.00;99.90;;;0.78;100.00;102364.13;5042216;28;20064;-79
2022/02/26 06:54:07;;;;;;;94.78;35.70;;;0.10;99.90;;;0.94;100.00;102352.28;5059544;28;20074;-79
2022/02/26 06:56:33;;;;;;;86.30;34.17;;;0.30;99.90;;;1.06;100.00;102359.34;5059713;28;20093;-80
2022/02/26 06:59:02;;;;;;;84.80;32.08;;;0.40;99.90;;;1.16;100.00;102364.16;5059173;28;20585;-79
2022/02/26 07:01:28;;;;;;;95.90;38.67;;;0.50;99.90;;;1.23;100.00;102366.72;5059561;28;20025;-79
2022/02/26 07:03:54;;;;;;;106.35;38.45;;;0.60;99.90;;;1.33;100.00;102367.69;5057539;28;20131;-77
2022/02/26 07:06:23;;;;;;;104.45;39.83;;;0.70;99.90;;;1.42;100.00;102366.16;5071968;28;20044;-77
2022/02/26 07:08:48;;;;;;;117.05;41.78;;;0.70;99.90;;;1.48;100.00;102369.81;5066807;28;20040;-78
2022/02/26 07:11:16;;;;;;;95.07;41.20;;;0.80;99.90;;;1.53;100.00;102376.22;5071804;28;20029;-79
2022/02/26 07:13:43;;;;;;;120.07;42.28;;;0.90;99.90;;;1.60;100.00;102381.53;5070415;28;20036;-79
2022/02/26 07:16:13;;;;;;;124.40;42.92;;;0.90;99.90;;;1.67;100.00;102381.34;5046829;28;20064;-78
2022/02/26 07:18:39;;;;;;;163.10;46.50;;;1.00;99.90;;;1.73;100.00;102386.66;5058283;28;20029;-77
2022/02/26 07:21:05;;;;;;;105.18;41.47;;;1.00;99.90;;;1.81;100.00;102386.19;5058091;28;20434;-77
2022/02/26 07:23:31;;;;;;;109.65;43.40;;;1.10;99.90;;;1.85;100.00;102386.53;5041584;28;20029;-79
2022/02/26 07:25:57;;;;;;;154.75;43.50;;;1.20;99.90;;;1.87;100.00;102403.63;5058645;28;20040;-79
2022/02/26 07:28:23;;;;;;;142.07;44.33;;;1.20;99.90;;;1.89;100.00;102391.28;5041077;28;20033;-77
2022/02/26 07:30:52;;;;;;;113.05;41.28;;;1.20;99.90;;;1.88;100.00;102388.75;5059728;28;20061;-78
2022/02/26 07:33:19;;;;;;;117.47;42.17;;;1.20;99.90;;;1.96;100.00;102396.56;5057512;28;20029;-78
2022/02/26 07:35:51;;;;;;;89.50;38.00;;;1.30;99.90;;;2.00;100.00;102392.19;5058985;28;20377;-78
2022/02/26 07:38:17;;;;;;;95.72;39.30;;;1.30;99.90;;;2.08;100.00;102405.53;5059339;28;20025;-77
2022/02/26 07:40:43;;;;;;;121.88;43.05;;;1.40;99.90;;;2.15;100.00;102403.41;5059157;28;20040;-79
2022/02/26 07:43:10;;;;;;;88.35;37.50;;;1.40;99.90;;;2.27;100.00;102411.50;5059818;28;20025;-78
2022/02/26 07:45:47;;;;;;;118.63;39.50;;;1.50;99.90;;;2.31;100.00;102404.41;5060774;28;20045;-78
2022/02/26 07:48:13;;;;;;;107.90;38.08;;;1.60;99.90;;;2.37;100.00;102401.44;5060519;28;20037;-79
2022/02/26 07:50:40;;;;;;;91.05;36.58;;;1.60;99.90;;;2.40;100.00;102411.09;5041690;28;20043;-80
2022/02/26 07:53:12;;;;;;;93.82;36.08;;;1.60;99.90;;;2.39;100.00;102415.78;5060453;28;20068;-80
2022/02/26 07:55:38;;;;;;;113.63;36.30;;;1.60;99.90;;;2.41;100.00;102408.06;5041380;28;20448;-78
2022/02/26 07:58:06;;;;;;;106.18;36.63;;;1.70;99.90;;;2.40;100.00;102409.19;5058193;28;20029;-80
2022/02/26 08:00:33;;;;;;;101.22;34.60;;;1.70;99.90;;;2.55;100.00;102412.06;5059863;28;20092;-77
2022/02/26 08:03:00;;;;;;;83.05;35.45;;;1.70;99.90;;;2.69;100.00;102414.41;5060137;28;20044;-79
2022/02/26 08:05:28;;;;;;;76.43;34.92;;;1.80;99.90;;;2.72;100.00;102417.47;5060245;28;20021;-78
2022/02/26 08:07:54;;;;;;;152.73;41.40;;;1.90;99.90;;;2.87;100.00;102428.63;5058918;28;20036;-78
2022/02/26 08:10:22;;;;;;;103.00;36.38;;;2.00;99.90;;;2.98;100.00;102426.78;5060084;28;20029;-77
2022/02/26 08:12:57;;;;;;;83.72;34.35;;;2.10;99.90;;;3.09;100.00;102434.03;5060414;28;20041;-79
2022/02/26 08:15:27;;;;;;;63.57;31.70;;;2.20;99.90;;;3.02;100.00;102425.13;5058971;28;20120;-78
2022/02/26 08:17:54;;;;;;;85.72;32.38;;;2.20;99.90;;;3.11;100.00;102435.41;5057301;28;20041;-78
2022/02/26 08:20:26;;;;;;;85.82;33.08;;;2.20;99.90;;;3.25;100.00;102422.00;5058180;28;20224;-78
2022/02/26 08:22:54;;;;;;;75.63;31.38;;;2.30;99.90;;;3.24;100.00;102419.50;5058030;28;20145;-76
2022/02/26 08:25:23;;;;;;;85.72;31.20;;;2.30;99.90;;;3.22;100.00;102417.00;5039813;28;20036;-76
2022/02/26 08:27:49;;;;;;;61.22;28.58;;;2.30;99.90;;;3.25;100.00;102426.69;5057466;28;20056;-81
2022/02/26 08:30:18;;;;;;;67.60;31.27;;;2.20;99.90;;;3.26;100.00;102423.66;5057688;28;20033;-77
2022/02/26 08:32:48;;;;;;;78.47;28.55;;;2.30;99.90;;;3.30;100.00;102430.31;5056874;28;20020;-76
2022/02/26 08:35:17;;;;;;;55.15;26.20;;;2.30;99.90;;;3.39;100.00;102428.72;5058531;28;20031;-79
2022/02/26 08:37:46;;;;;;;67.75;28.67;;;2.50;99.90;;;3.55;100.00;102432.41;5058135;28;20076;-78
2022/02/26 08:40:15;;;;;;;105.70;32.00;;;2.50;99.90;;;3.66;100.00;102434.13;5055859;28;20025;-77
2022/02/26 08:42:45;;;;;;;53.72;25.80;;;2.60;99.90;;;3.67;100.00;102428.31;5055537;28;20072;-80
2022/02/26 08:45:12;;;;;;;52.72;26.02;;;2.60;99.90;;;3.69;100.00;102431.63;5037153;28;20056;-77
2022/02/26 08:47:42;;;;;;;62.83;27.48;;;2.60;99.90;;;3.78;100.00;102436.66;5054883;28;20084;-76
2022/02/26 08:50:13;;;;;;;77.72;28.52;;;2.80;99.90;;;3.87;100.00;102451.63;5067662;28;20029;-78
2022/02/26 08:52:40;;;;;;;98.18;31.15;;;2.80;99.90;;;3.90;100.00;102453.84;5081472;28;20029;-79
2022/02/26 08:55:07;;;;;;;77.95;27.58;;;2.90;99.90;;;3.78;100.00;102447.72;5083695;28;20028;-76
2022/02/26 08:57:33;;;;;;;56.03;28.08;;;2.90;99.90;;;4.00;100.00;102451.13;5082542;28;20124;-78
2022/02/26 09:00:00;;;;;;;56.30;25.92;;;3.00;99.90;;;4.09;100.00;102466.94;5081075;28;20048;-77
2022/02/26 09:02:29;;;;;;;54.47;26.13;;;3.10;99.90;;;4.23;100.00;102470.03;5064005;28;20495;-79
2022/02/26 09:04:55;;;;;;;54.13;25.90;;;3.10;99.90;;;4.07;100.00;102463.59;5081819;28;20085;-78
2022/02/26 09:07:20;;;;;;;56.50;25.80;;;3.00;99.90;;;3.99;100.00;102460.50;5081975;28;20075;-80
2022/02/26 09:09:46;;;;;;;63.42;25.83;;;3.00;99.90;;;3.95;100.00;102468.50;5083423;28;20025;-77
2022/02/26 09:12:12;;;;;;;59.08;26.33;;;3.00;99.90;;;4.22;100.00;102473.88;5063520;28;20024;-78
2022/02/26 09:14:38;;;;;;;57.05;25.25;;;3.10;99.90;;;4.46;100.00;102466.78;5063426;28;20029;-77
2022/02/26 09:17:08;;;;;;;59.35;25.88;;;3.30;99.90;;;4.69;100.00;102470.94;5063492;28;20043;-78
2022/02/26 09:19:36;;;;;;;54.05;24.98;;;3.50;99.90;;;4.40;100.00;102483.63;5082134;28;20028;-79
2022/02/26 09:22:04;;;;;;;48.03;24.58;;;3.40;99.90;;;4.68;100.00;102480.38;5082382;28;20024;-79
2022/02/26 09:24:33;;;;;;;52.88;25.08;;;3.50;99.90;;;4.93;100.00;102483.16;5080390;28;20028;-79
2022/02/26 09:27:05;;;;;;;55.50;25.80;;;3.70;99.90;;;4.61;100.00;102480.63;5061585;28;20039;-81
2022/02/26 09:29:34;;;;;;;49.28;22.98;;;3.70;99.90;;;4.59;100.00;102477.28;5080614;28;20395;-79
2022/02/26 09:32:00;;;;;;;45.70;22.17;;;3.70;99.90;;;4.84;100.00;102476.50;5080473;28;20040;-76
2022/02/26 09:34:28;;;;;;;47.50;22.33;;;3.80;99.90;;;5.08;100.00;102485.09;5080967;28;20029;-78
2022/02/26 09:36:57;;;;;;;52.85;23.10;;;3.90;99.90;;;5.31;100.00;102485.38;5081613;28;20051;-76
2022/02/26 09:39:29;;;;;;;47.45;21.75;;;4.10;99.90;;;5.25;100.00;102500.34;5067801;28;20024;-77
2022/02/26 09:41:57;;;;;;;52.97;22.30;;;4.10;99.90;;;5.36;100.00;102492.03;5082068;28;20029;-78
2022/02/26 09:44:24;;;;;;;47.95;22.02;;;4.10;99.90;;;5.38;100.00;102492.56;5061805;28;20024;-77
2022/02/26 09:46:53;;;;;;;48.63;23.85;;;4.30;99.90;;;5.24;100.00;102489.53;5079142;28;20035;-79
2022/02/26 09:49:19;;;;;;;45.17;22.15;;;4.20;99.90;;;5.25;100.00;102499.50;5075240;28;20220;-80
2022/02/26 09:51:45;;;;;;;51.13;21.98;;;4.30;99.90;;;5.07;100.00;102487.03;5056837;28;20020;-77
2022/02/26 09:54:16;;;;;;;46.38;21.27;;;4.30;99.90;;;5.20;100.00;102496.75;5059476;28;20128;-78
2022/02/26 09:56:43;;;;;;;40.45;20.95;;;4.40;99.90;;;5.29;100.00;102495.06;5058647;28;20488;-78
2022/02/26 09:59:11;;;;;;;44.85;20.27;;;4.40;99.90;;;5.82;100.00;102501.91;5058728;28;20091;-78
2022/02/26 10:02:08;;;;;;;51.55;22.38;;;4.60;99.90;;;6.38;100.00;102497.00;5060158;28;20072;-79
2022/02/26 10:04:52;;;;;;;46.97;20.58;;;5.10;99.90;;;6.66;100.00;102496.28;5056527;28;20037;-76
2022/02/26 10:07:20;;;;;;;41.17;19.63;;;5.30;99.90;;;6.80;100.00;102502.03;5055402;28;20048;-79